
Distance (Route):
Temperature : 0.7°C
Humidity : 0%
Pressure : 0hPa| Receiver | Date | Latitude | Longitude | Direction | Speed | Altitude | Climb | Temperature | Humidity | Pressure | Voltage | Killtimer | Uptime | BKT | XDATA |
|---|---|---|---|---|---|---|---|---|---|---|---|---|---|---|---|
| DB0UT-7 | 2026-09-04 11:46:22 | 48.21821 | 3.28350 | 64° | 66km/h | 4458m | -6.4m/s | 0.7°C | 0% | 0hPa | 5.0V | 00:00:00 | 00:00:00 | 00:00:00 | |
| DB0UT-7 | 2026-09-04 11:45:52 | 48.21570 | 3.27697 | 65° | 66km/h | 4648m | -6.2m/s | -0.5°C | 0% | 0hPa | 5.0V | 00:00:00 | 00:00:00 | 00:00:00 | |
| DB0UT-7 | 2026-09-04 11:45:22 | 48.21379 | 3.26977 | 73° | 78km/h | 4836m | -6.5m/s | -1.9°C | 0% | 0hPa | 5.0V | 00:00:00 | 00:00:00 | 00:00:00 | |
| DB0UT-7 | 2026-09-04 11:44:52 | 48.21134 | 3.26167 | 60° | 78km/h | 5027m | -6.1m/s | -3.5°C | 0% | 0hPa | 5.0V | 00:00:00 | 00:00:00 | 00:00:00 | |
| DB0UT-7 | 2026-09-04 11:44:20 | 48.20892 | 3.25254 | 69° | 80km/h | 5231m | -6.4m/s | -4.6°C | 0% | 0hPa | 5.0V | 00:00:00 | 00:00:00 | 00:00:00 | |
| DB0UT-7 | 2026-09-04 11:43:50 | 48.20662 | 3.24414 | 76° | 77km/h | 5424m | -6.3m/s | -6.3°C | 0% | 0hPa | 5.0V | 00:00:00 | 00:00:00 | 00:00:00 | |
| DB0UT-7 | 2026-09-04 11:43:20 | 48.20408 | 3.23642 | 74° | 73km/h | 5621m | -6.7m/s | -8.0°C | 0% | 0hPa | 5.0V | 00:00:00 | 00:00:00 | 00:00:00 | |
| DB0UT-7 | 2026-09-04 11:42:50 | 48.20155 | 3.22903 | 68° | 73km/h | 5826m | -7.1m/s | -9.2°C | 0% | 0hPa | 5.0V | 00:00:00 | 00:00:00 | 00:00:00 | |
| DB0UT-7 | 2026-09-04 11:42:20 | 48.19887 | 3.22185 | 59° | 75km/h | 6041m | -7.0m/s | -9.7°C | 0% | 0hPa | 5.0V | 00:00:00 | 00:00:00 | 00:00:00 | |
| DB0UT-7 | 2026-09-04 11:41:50 | 48.19667 | 3.21411 | 66° | 82km/h | 6260m | -7.3m/s | -11.6°C | 0% | 0hPa | 5.0V | 00:00:00 | 00:00:00 | 00:00:00 | |
| DB0UT-7 | 2026-09-04 11:41:20 | 48.19403 | 3.20587 | 75° | 78km/h | 6480m | -7.3m/s | -12.4°C | 0% | 0hPa | 5.0V | 00:00:00 | 00:00:00 | 00:00:00 | |
| DB0UT-7 | 2026-09-04 11:40:50 | 48.19281 | 3.19712 | 76° | 80km/h | 6703m | -7.4m/s | -13.7°C | 0% | 0hPa | 5.0V | 00:00:00 | 00:00:00 | 00:00:00 | |
| DB0UT-7 | 2026-09-04 11:40:20 | 48.19135 | 3.18842 | 69° | 91km/h | 6931m | -7.5m/s | -15.2°C | 0% | 0hPa | 5.0V | 00:00:00 | 00:00:00 | 00:00:00 | |
| DB0UT-7 | 2026-09-04 11:39:48 | 48.18950 | 3.17786 | 77° | 78km/h | 7173m | -7.2m/s | -16.9°C | 0% | 0hPa | 5.0V | 00:00:00 | 00:00:00 | 00:00:00 | |
| DB0UT-7 | 2026-09-04 11:39:18 | 48.18844 | 3.16921 | 84° | 86km/h | 7395m | -7.5m/s | -18.9°C | 0% | 0hPa | 5.0V | 00:00:00 | 00:00:00 | 00:00:00 | |
| DB0UT-7 | 2026-09-04 11:38:48 | 48.18678 | 3.15966 | 75° | 73km/h | 7623m | -7.7m/s | -20.8°C | 0% | 0hPa | 5.0V | 00:00:00 | 00:00:00 | 00:00:00 | |
| DB0UT-7 | 2026-09-04 11:38:18 | 48.18556 | 3.15170 | 86° | 86km/h | 7853m | -7.8m/s | -22.5°C | 0% | 0hPa | 5.0V | 00:00:00 | 00:00:00 | 00:00:00 | |
| DB0UT-7 | 2026-09-04 11:36:48 | 48.18421 | 3.12132 | 72° | 84km/h | 8552m | -8.0m/s | -28.3°C | 0% | 0hPa | 5.0V | 00:00:00 | 00:00:00 | 00:00:00 | |
| DB0UT-7 | 2026-09-04 11:36:18 | 48.18326 | 3.11199 | 87° | 100km/h | 8788m | -7.8m/s | -30.4°C | 0% | 0hPa | 5.0V | 00:00:00 | 00:00:00 | 00:00:00 | |
| DB0UT-7 | 2026-09-04 11:35:51 | 48.18042 | 3.10148 | 75° | 88km/h | 9024m | -8.4m/s | -31.2°C | 0% | 0hPa | 5.0V | 00:00:00 | 00:00:00 | 00:00:00 | |
| DB0UT-7 | 2026-09-04 11:35:18 | 48.17782 | 3.09246 | 76° | 89km/h | 9265m | -7.6m/s | -32.7°C | 0% | 0hPa | 5.0V | 00:00:00 | 00:00:00 | 00:00:00 | |
| DB0UT-7 | 2026-09-04 11:34:48 | 48.17476 | 3.08351 | 71° | 91km/h | 9512m | -8.5m/s | -34.2°C | 0% | 0hPa | 5.0V | 00:00:00 | 00:00:00 | 00:00:00 | |
| DB0UT-7 | 2026-09-04 11:34:18 | 48.17111 | 3.07486 | 65° | 89km/h | 9758m | -8.0m/s | -36.1°C | 0% | 0hPa | 5.0V | 00:00:00 | 00:00:00 | 00:00:00 | |
| DB0UT-7 | 2026-09-04 11:33:48 | 48.16915 | 3.06516 | 63° | 73km/h | 10004m | -8.6m/s | -37.8°C | 0% | 0hPa | 5.0V | 00:00:00 | 00:00:00 | 00:00:00 | |
| DB0UT-7 | 2026-09-04 11:32:25 | 48.16295 | 3.04266 | 75° | 97km/h | 10731m | -8.8m/s | -43.4°C | 0% | 0hPa | 5.0V | 00:00:00 | 00:00:00 | 00:00:00 | |
| DB0UT-7 | 2026-09-04 11:31:55 | 48.16114 | 3.03210 | 80° | 108km/h | 11005m | -9.0m/s | -45.5°C | 0% | 0hPa | 5.0V | 00:00:00 | 00:00:00 | 00:00:00 | |
| DB0UT-7 | 2026-09-04 11:31:26 | 48.15887 | 3.02040 | 60° | 88km/h | 11279m | -9.6m/s | -47.6°C | 0% | 0hPa | 5.0V | 00:00:00 | 00:00:00 | 00:00:00 | |
| DB0UT-7 | 2026-09-04 11:30:50 | 48.15603 | 3.00849 | 57° | 93km/h | 11613m | -9.3m/s | -50.3°C | 0% | 0hPa | 5.0V | 00:00:00 | 00:00:00 | 00:00:00 | |
| DB0UT-7 | 2026-09-04 11:30:20 | 48.15293 | 2.99908 | 69° | 86km/h | 11906m | -9.8m/s | -52.4°C | 0% | 0hPa | 5.0V | 00:00:00 | 00:00:00 | 00:00:00 | |
| DB0UT-7 | 2026-09-04 11:29:50 | 48.14984 | 2.99048 | 66° | 102km/h | 12203m | -10.2m/s | -54.8°C | 0% | 0hPa | 5.0V | 00:00:00 | 00:00:00 | 00:00:00 | |
| DB0UT-7 | 2026-09-04 11:29:19 | 48.14742 | 2.97906 | 71° | 102km/h | 12515m | -10.7m/s | -57.0°C | 0% | 0hPa | 5.0V | 00:00:00 | 00:00:00 | 00:00:00 | |
| DB0UT-7 | 2026-09-04 11:28:49 | 48.14310 | 2.96956 | 49° | 102km/h | 12825m | -10.1m/s | -59.2°C | 0% | 0hPa | 5.0V | 00:00:00 | 00:00:00 | 00:00:00 | |
| DB0UT-7 | 2026-09-04 11:28:19 | 48.13931 | 2.95932 | 52° | 89km/h | 13154m | -11.5m/s | -61.6°C | 0% | 0hPa | 5.0V | 00:00:00 | 00:00:00 | 00:00:00 | |
| DB0UT-7 | 2026-09-04 11:27:49 | 48.13690 | 2.95019 | 79° | 89km/h | 13493m | -10.6m/s | -63.1°C | 0% | 0hPa | 5.0V | 00:00:00 | 00:00:00 | 00:00:00 | |
| DB0UT-7 | 2026-09-04 11:27:19 | 48.13451 | 2.94082 | 86° | 89km/h | 13831m | -11.6m/s | -63.5°C | 0% | 0hPa | 5.1V | 00:00:00 | 00:00:00 | 00:00:00 | |
| DB0UT-7 | 2026-09-04 11:26:49 | 48.13248 | 2.93130 | 66° | 91km/h | 14188m | -12.3m/s | -63.4°C | 0% | 0hPa | 5.1V | 00:00:00 | 00:00:00 | 00:00:00 | |
| DB0UT-7 | 2026-09-04 11:26:19 | 48.13191 | 2.92140 | 101° | 86km/h | 14545m | -12.1m/s | -60.7°C | 0% | 0hPa | 5.1V | 00:00:00 | 00:00:00 | 00:00:00 | |
| DB0UT-7 | 2026-09-04 11:25:48 | 48.13050 | 2.91199 | 101° | 75km/h | 14923m | -13.2m/s | -58.1°C | 0% | 0hPa | 5.1V | 00:00:00 | 00:00:00 | 00:00:00 | |
| DB0UT-7 | 2026-09-04 11:25:18 | 48.13012 | 2.90374 | 81° | 62km/h | 15334m | -15.3m/s | -60.3°C | 0% | 0hPa | 5.1V | 00:00:00 | 00:00:00 | 00:00:00 | |
| DB0UT-7 | 2026-09-04 11:24:48 | 48.12875 | 2.89732 | 59° | 47km/h | 15748m | -12.8m/s | -58.5°C | 0% | 0hPa | 5.1V | 00:00:00 | 00:00:00 | 00:00:00 | |
| DB0UT-7 | 2026-09-04 11:24:18 | 48.12764 | 2.89131 | 88° | 51km/h | 16159m | -13.9m/s | -58.3°C | 0% | 0hPa | 5.1V | 00:00:00 | 00:00:00 | 00:00:00 | |
| DB0UT-7 | 2026-09-04 11:23:48 | 48.12742 | 2.88586 | 110° | 62km/h | 16623m | -13.9m/s | -58.8°C | 0% | 0hPa | 5.1V | 00:00:00 | 00:00:00 | 00:00:00 | |
| DB0UT-7 | 2026-09-04 11:23:18 | 48.12745 | 2.87918 | 102° | 60km/h | 17079m | -16.2m/s | -58.3°C | 0% | 0hPa | 5.1V | 00:00:00 | 00:00:00 | 00:00:00 | |
| DB0UT-7 | 2026-09-04 11:22:06 | 48.12689 | 2.86884 | 55° | 55km/h | 18212m | -15.9m/s | -56.8°C | 0% | 0hPa | 5.1V | 00:00:00 | 00:00:00 | 00:00:00 | |
| DB0UT-7 | 2026-09-04 11:21:36 | 48.12683 | 2.86303 | 142° | 47km/h | 18749m | -19.6m/s | -56.0°C | 0% | 0hPa | 5.1V | 00:00:00 | 00:00:00 | 00:00:00 | |
| DB0UT-7 | 2026-09-04 11:21:06 | 48.12621 | 2.85793 | 48° | 24km/h | 19279m | -20.2m/s | -55.6°C | 0% | 0hPa | 5.1V | 00:00:00 | 00:00:00 | 00:00:00 | |
| DB0UT-7 | 2026-09-04 11:20:33 | 48.12627 | 2.85643 | 132° | 31km/h | 19970m | -20.8m/s | -54.1°C | 0% | 0hPa | 5.1V | 00:00:00 | 00:00:00 | 00:00:00 | |
| BIOWL9-15 | 2026-09-04 11:20:29 | 48.12598 | 2.85603 | 255° | 11km/h | 20160m | -20.2m/s | -55.0°C | 0.0% | -1.0hPa | 5.1V | 00:00:00 | 00:00:00 | 00:00:00 | |
| DB0UT-7 | 2026-09-04 11:20:03 | 48.12670 | 2.85447 | 98° | 29km/h | 20605m | -23.7m/s | -54.3°C | 0% | 0hPa | 5.1V | 00:00:00 | 00:00:00 | 00:00:00 | |
| DB0UT-7 | 2026-09-04 11:19:33 | 48.12693 | 2.85365 | 32° | 18km/h | 21274m | -24.8m/s | -53.7°C | 0% | 0hPa | 5.1V | 00:00:00 | 00:00:00 | 00:00:00 | |
| DB0UT-7 | 2026-09-04 11:18:52 | 48.12720 | 2.85147 | 210° | 15km/h | 22376m | -28.1m/s | -51.3°C | 0% | 0hPa | 5.1V | 00:00:00 | 00:00:00 | 00:00:00 | |
| DB0UT-7 | 2026-09-04 11:18:22 | 48.12701 | 2.85135 | 306° | 24km/h | 23250m | -29.7m/s | -52.3°C | 0% | 0hPa | 5.1V | 00:00:00 | 00:00:00 | 00:00:00 | |
| DB0UT-7 | 2026-09-04 11:17:52 | 48.12665 | 2.84990 | 64° | 11km/h | 24154m | -32.0m/s | -50.7°C | 0% | 0hPa | 5.1V | 00:00:00 | 00:00:00 | 00:00:00 | |
| DB0UT-7 | 2026-09-04 11:17:22 | 48.12638 | 2.84945 | 90° | 31km/h | 25195m | -36.0m/s | -49.2°C | 0% | 0hPa | 5.1V | 00:00:00 | 00:00:00 | 00:00:00 | |
| DB0UT-7 | 2026-09-04 11:16:52 | 48.12726 | 2.85158 | 250° | 47km/h | 26281m | -38.1m/s | -48.0°C | 0% | 0hPa | 5.1V | 00:00:00 | 00:00:00 | 00:00:00 | |
| DB0UT-7 | 2026-09-04 11:16:22 | 48.12475 | 2.85169 | 336° | 29km/h | 27336m | -39.6m/s | -46.9°C | 0% | 0hPa | 5.1V | 00:00:00 | 00:00:00 | 00:00:00 | |
| DB0UT-7 | 2026-09-04 11:15:52 | 48.12482 | 2.85345 | 339° | 33km/h | 28616m | -47.3m/s | -44.6°C | 0% | 0hPa | 5.2V | 00:00:00 | 00:00:00 | 00:00:00 | |
| DB0UT-7 | 2026-09-04 11:15:17 | 48.12375 | 2.85346 | 76° | 7km/h | 30148m | -9.1m/s | -39.0°C | 0% | 0hPa | 5.2V | 00:00:00 | 00:00:00 | 00:00:00 | |
| DM0DOS-11 | 2026-09-04 11:15:03 | 48.12374 | 2.85325 | 135° | 16km/h | 30043m | 6.6m/s | -39.5°C | 0% | 0hPa | 5.2V | 00:00:00 | 00:00:00 | 00:00:00 | |
| DB0UT-7 | 2026-09-04 11:14:47 | 48.12372 | 2.85293 | 105° | 9km/h | 29969m | 7.0m/s | -40.2°C | 0% | 0hPa | 5.1V | 00:00:00 | 00:00:00 | 00:00:00 | |
| DB0UT-7 | 2026-09-04 11:14:17 | 48.12361 | 2.85261 | 98° | 11km/h | 29775m | 5.8m/s | -40.9°C | 0% | 0hPa | 5.1V | 00:00:00 | 00:00:00 | 00:00:00 | |
| DB0UT-7 | 2026-09-04 11:13:46 | 48.12340 | 2.85221 | 109° | 15km/h | 29578m | 6.9m/s | -41.8°C | 0% | 0hPa | 5.1V | 00:00:00 | 00:00:00 | 00:00:00 | |
| DB0UT-7 | 2026-09-04 11:13:16 | 48.12282 | 2.85119 | 337° | 16km/h | 29381m | 7.1m/s | -41.9°C | 0% | 0hPa | 5.1V | 00:00:00 | 00:00:00 | 00:00:00 | |
| DB0UT-7 | 2026-09-04 11:12:46 | 48.12188 | 2.85077 | 25° | 24km/h | 29186m | 7.2m/s | -42.6°C | 0% | 0hPa | 5.2V | 00:00:00 | 00:00:00 | 00:00:00 | |
| DM0DOS-11 | 2026-09-04 11:12:37 | 48.12140 | 2.85028 | 15° | 22km/h | 29108m | 6.1m/s | -42.8°C | 0% | 0hPa | 5.2V | 00:00:00 | 00:00:00 | 00:00:00 | |
| DM0DOS-11 | 2026-09-04 11:12:27 | 48.12084 | 2.84979 | 351° | 27km/h | 29042m | 6.5m/s | -42.6°C | 0% | 0hPa | 5.2V | 00:00:00 | 00:00:00 | 00:00:00 | |
| DB0UT-7 | 2026-09-04 11:12:16 | 48.12038 | 2.84967 | 38° | 22km/h | 28991m | 5.7m/s | -43.2°C | 0% | 0hPa | 5.2V | 00:00:00 | 00:00:00 | 00:00:00 | |
| DM0DOS-11 | 2026-09-04 11:12:05 | 48.11959 | 2.84965 | 14° | 18km/h | 28891m | 5.7m/s | -43.4°C | 0% | 0hPa | 5.2V | 00:00:00 | 00:00:00 | 00:00:00 | |
| DB0UT-7 | 2026-09-04 11:11:46 | 48.11887 | 2.85010 | 320° | 18km/h | 28798m | 7.4m/s | -44.1°C | 0% | 0hPa | 5.1V | 00:00:00 | 00:00:00 | 00:00:00 | |
| DB0UT-7 | 2026-09-04 11:11:16 | 48.11824 | 2.85174 | 255° | 13km/h | 28607m | 6.9m/s | -44.2°C | 0% | 0hPa | 5.1V | 00:00:00 | 00:00:00 | 00:00:00 | |
| DB0UT-7 | 2026-09-04 11:10:45 | 48.11784 | 2.85257 | 330° | 22km/h | 28413m | 6.8m/s | -44.9°C | 0% | 0hPa | 5.1V | 00:00:00 | 00:00:00 | 00:00:00 | |
| DB0UT-7 | 2026-09-04 11:10:15 | 48.11664 | 2.85425 | 319° | 24km/h | 28227m | 5.5m/s | -45.4°C | 0% | 0hPa | 5.1V | 00:00:00 | 00:00:00 | 00:00:00 | |
| DB0UT-7 | 2026-09-04 11:09:45 | 48.11534 | 2.85599 | 306° | 16km/h | 28037m | 6.4m/s | -44.8°C | 0% | 0hPa | 5.1V | 00:00:00 | 00:00:00 | 00:00:00 | |
| DB0UT-7 | 2026-09-04 11:08:45 | 48.11553 | 2.85847 | 324° | 15km/h | 27651m | 5.8m/s | -46.4°C | 0% | 0hPa | 5.1V | 00:00:00 | 00:00:00 | 00:00:00 | |
| DB0UT-7 | 2026-09-04 11:08:15 | 48.11581 | 2.85970 | 238° | 20km/h | 27448m | 6.9m/s | -46.7°C | 0% | 0hPa | 5.1V | 00:00:00 | 00:00:00 | 00:00:00 | |
| DB0UT-7 | 2026-09-04 11:07:45 | 48.11641 | 2.86155 | 231° | 16km/h | 27248m | 7.1m/s | -47.0°C | 0% | 0hPa | 5.1V | 00:00:00 | 00:00:00 | 00:00:00 | |
| DB0UT-7 | 2026-09-04 11:07:15 | 48.11738 | 2.86203 | 184° | 9km/h | 27050m | 7.4m/s | -46.5°C | 0% | 0hPa | 5.1V | 00:00:00 | 00:00:00 | 00:00:00 | |
| DM0DOS-11 | 2026-09-04 11:07:10 | 48.11761 | 2.86203 | 175° | 24km/h | 26992m | 5.5m/s | -46.9°C | 0% | 0hPa | 5.2V | 00:00:00 | 00:00:00 | 00:00:00 | |
| DM0DOS-11 | 2026-09-04 11:06:53 | 48.11797 | 2.86179 | 60° | 5km/h | 26879m | 5.1m/s | -47.3°C | 0% | 0hPa | 5.2V | 00:00:00 | 00:00:00 | 00:00:00 | |
| DB0UT-7 | 2026-09-04 11:06:44 | 48.11801 | 2.86166 | 147° | 11km/h | 26853m | 6.6m/s | -47.3°C | 0% | 0hPa | 5.2V | 00:00:00 | 00:00:00 | 00:00:00 | |
| DM0DOS-11 | 2026-09-04 11:06:34 | 48.11823 | 2.86130 | 143° | 16km/h | 26760m | 5.6m/s | -46.9°C | 0% | 0hPa | 5.2V | 00:00:00 | 00:00:00 | 00:00:00 | |
| DM0DOS-11 | 2026-09-04 11:06:22 | 48.11821 | 2.86120 | 106° | 7km/h | 26686m | 6.1m/s | -47.6°C | 0% | 0hPa | 5.2V | 00:00:00 | 00:00:00 | 00:00:00 | |
| DB0UT-7 | 2026-09-04 11:06:14 | 48.11825 | 2.86114 | 180° | 13km/h | 26669m | 6.0m/s | -47.5°C | 0% | 0hPa | 5.2V | 00:00:00 | 00:00:00 | 00:00:00 | |
| DM0DOS-11 | 2026-09-04 11:06:12 | 48.11831 | 2.86137 | 267° | 0km/h | 26625m | 7.2m/s | -47.7°C | 0% | 0hPa | 5.2V | 00:00:00 | 00:00:00 | 00:00:00 | |
| DM0DOS-11 | 2026-09-04 11:05:45 | 48.11799 | 2.86215 | 345° | 7km/h | 26469m | 6m/s | -47.1°C | 0% | 0hPa | 5.2V | 00:00:00 | 00:00:00 | 00:00:00 | |
| DB0UT-7 | 2026-09-04 11:05:44 | 48.11803 | 2.86211 | 312° | 13km/h | 26482m | 6.5m/s | -47.3°C | 0% | 0hPa | 5.1V | 00:00:00 | 00:00:00 | 00:00:00 | |
| DM0DOS-11 | 2026-09-04 11:05:35 | 48.11770 | 2.86292 | 285° | 22km/h | 26357m | 5.5m/s | -47.5°C | 0% | 0hPa | 5.2V | 00:00:00 | 00:00:00 | 00:00:00 | |
| DM0DOS-11 | 2026-09-04 11:05:30 | 48.11756 | 2.86309 | 283° | 16km/h | 26301m | 6.6m/s | -47.8°C | 0% | 0hPa | 5.2V | 00:00:00 | 00:00:00 | 00:00:00 | |
| DB0UT-7 | 2026-09-04 11:05:23 | 48.11755 | 2.86323 | 273° | 9km/h | 26290m | 5.5m/s | -47.5°C | 0% | 0hPa | 5.1V | 00:00:00 | 00:00:00 | 00:00:00 | |
| DB0UT-7 | 2026-09-04 11:04:43 | 48.11769 | 2.86386 | 160° | 15km/h | 26105m | 6.2m/s | -47.7°C | 0% | 0hPa | 5.1V | 00:00:00 | 00:00:00 | 00:00:00 | |
| DB0UT-7 | 2026-09-04 11:04:13 | 48.11857 | 2.86439 | 228° | 15km/h | 25915m | 6.1m/s | -47.7°C | 0% | 0hPa | 5.1V | 00:00:00 | 00:00:00 | 00:00:00 | |
| DB0UT-7 | 2026-09-04 11:03:43 | 48.11971 | 2.86452 | 181° | 20km/h | 25726m | 6.7m/s | -47.8°C | 0% | 0hPa | 5.1V | 00:00:00 | 00:00:00 | 00:00:00 | |
| DB0UT-7 | 2026-09-04 11:03:12 | 48.12126 | 2.86507 | 172° | 13km/h | 25528m | 5.3m/s | -48.1°C | 0% | 0hPa | 5.1V | 00:00:00 | 00:00:00 | 00:00:00 | |
| DB0UT-7 | 2026-09-04 11:02:42 | 48.12147 | 2.86419 | 1° | 11km/h | 25339m | 5.6m/s | -48.4°C | 0% | 0hPa | 5.1V | 00:00:00 | 00:00:00 | 00:00:00 | |
| DB0UT-7 | 2026-09-04 11:02:08 | 48.12157 | 2.86468 | 8° | 9km/h | 25131m | 5.2m/s | -49.0°C | 0% | 0hPa | 5.2V | 00:00:00 | 00:00:00 | 00:00:00 | |
| DB0UT-7 | 2026-09-04 11:01:38 | 48.12190 | 2.86418 | 103° | 13km/h | 24955m | 5.8m/s | -49.3°C | 0% | 0hPa | 5.2V | 00:00:00 | 00:00:00 | 00:00:00 | |
| DM0DOS-11 | 2026-09-04 11:01:23 | 48.12174 | 2.86355 | 78° | 16km/h | 24856m | 5.9m/s | -49.5°C | 0% | 0hPa | 5.2V | 00:00:00 | 00:00:00 | 00:00:00 | |
| DB0UT-7 | 2026-09-04 11:01:08 | 48.12151 | 2.86308 | 54° | 13km/h | 24778m | 5.3m/s | -49.6°C | 0% | 0hPa | 5.1V | 00:00:00 | 00:00:00 | 00:00:00 | |
| DB0UT-7 | 2026-09-04 11:00:38 | 48.12078 | 2.86325 | 338° | 13km/h | 24596m | 6.6m/s | -49.7°C | 0% | 0hPa | 5.1V | 00:00:00 | 00:00:00 | 00:00:00 | |
| DB0UT-7 | 2026-09-04 11:00:07 | 48.12006 | 2.86289 | 289° | 9km/h | 24412m | 5.5m/s | -49.3°C | 0% | 0hPa | 5.1V | 00:00:00 | 00:00:00 | 00:00:00 | |
| DB0UT-7 | 2026-09-04 10:59:37 | 48.11982 | 2.86210 | 50° | 16km/h | 24234m | 6.7m/s | -50.1°C | 0% | 0hPa | 5.1V | 00:00:00 | 00:00:00 | 00:00:00 | |
| DB0UT-7 | 2026-09-04 10:59:07 | 48.11883 | 2.86156 | 17° | 13km/h | 24060m | 6.1m/s | -50.1°C | 0% | 0hPa | 5.2V | 00:00:00 | 00:00:00 | 00:00:00 | |
| DB0UT-7 | 2026-09-04 10:58:37 | 48.11859 | 2.86223 | 209° | 13km/h | 23879m | 6.1m/s | -50.3°C | 0% | 0hPa | 5.2V | 00:00:00 | 00:00:00 | 00:00:00 | |
| DB0UT-7 | 2026-09-04 10:58:07 | 48.11925 | 2.86198 | 93° | 16km/h | 23702m | 5.1m/s | -50.8°C | 0% | 0hPa | 5.2V | 00:00:00 | 00:00:00 | 00:00:00 | |
| DB0UT-7 | 2026-09-04 10:57:37 | 48.11975 | 2.86057 | 19° | 13km/h | 23517m | 5.8m/s | -51.6°C | 0% | 0hPa | 5.2V | 00:00:00 | 00:00:00 | 00:00:00 | |
| DB0UT-7 | 2026-09-04 10:57:05 | 48.11907 | 2.86080 | 216° | 13km/h | 23327m | 5.8m/s | -51.3°C | 0% | 0hPa | 5.2V | 00:00:00 | 00:00:00 | 00:00:00 | |
| DB0UT-7 | 2026-09-04 10:56:37 | 48.11896 | 2.86187 | 317° | 9km/h | 23150m | 5.4m/s | -51.3°C | 0% | 0hPa | 5.2V | 00:00:00 | 00:00:00 | 00:00:00 | |
| DB0UT-7 | 2026-09-04 10:56:06 | 48.11883 | 2.86210 | 125° | 13km/h | 22973m | 6.3m/s | -51.6°C | 0% | 0hPa | 5.2V | 00:00:00 | 00:00:00 | 00:00:00 | |
| DB0UT-7 | 2026-09-04 10:55:35 | 48.11857 | 2.86095 | 41° | 9km/h | 22794m | 6.7m/s | -50.6°C | 0% | 0hPa | 5.2V | 00:00:00 | 00:00:00 | 00:00:00 | |
| DB0UT-7 | 2026-09-04 10:55:04 | 48.11854 | 2.86074 | 209° | 11km/h | 22605m | 5.2m/s | -49.9°C | 0% | 0hPa | 5.2V | 00:00:00 | 00:00:00 | 00:00:00 | |
| DB0UT-7 | 2026-09-04 10:54:34 | 48.11901 | 2.86125 | 191° | 16km/h | 22424m | 7.2m/s | -50.7°C | 0% | 0hPa | 5.2V | 00:00:00 | 00:00:00 | 00:00:00 | |
| DB0UT-7 | 2026-09-04 10:54:04 | 48.11982 | 2.85995 | 89° | 20km/h | 22242m | 6.1m/s | -51.3°C | 0% | 0hPa | 5.2V | 00:00:00 | 00:00:00 | 00:00:00 | |
| BIOWL9-15 | 2026-09-04 10:53:34 | 48.11978 | 2.85791 | 0° | 11km/h | 22054m | 4.7m/s | -52.1°C | 2.1% | -1.0hPa | 5.2V | 00:00:00 | 00:00:00 | 00:00:00 | |
| DB0UT-7 | 2026-09-04 10:53:01 | 48.11945 | 2.85760 | 263° | 9km/h | 21876m | 4.6m/s | -51.3°C | 0% | 0hPa | 5.2V | 00:00:00 | 00:00:00 | 00:00:00 | |
| DB0UT-7 | 2026-09-04 10:52:31 | 48.11970 | 2.85714 | 187° | 20km/h | 21712m | 5.9m/s | -52.2°C | 0% | 0hPa | 5.2V | 00:00:00 | 00:00:00 | 00:00:00 | |
| DB0UT-7 | 2026-09-04 10:51:16 | 48.12109 | 2.85292 | 83° | 16km/h | 21299m | 5.5m/s | -53.4°C | 0% | 0hPa | 5.2V | 00:00:00 | 00:00:00 | 00:00:00 | |
| DB0UT-7 | 2026-09-04 10:50:47 | 48.12210 | 2.85194 | 162° | 20km/h | 21130m | 5.5m/s | -53.8°C | 0% | 0hPa | 5.2V | 00:00:00 | 00:00:00 | 00:00:00 | |
| DB0UT-7 | 2026-09-04 10:50:07 | 48.12334 | 2.84962 | 115° | 20km/h | 20918m | 6.2m/s | -54.4°C | 0% | 0hPa | 5.2V | 00:00:00 | 00:00:00 | 00:00:00 | |
| DB0UT-7 | 2026-09-04 10:49:37 | 48.12374 | 2.84730 | 89° | 31km/h | 20749m | 5.9m/s | -54.7°C | 0% | 0hPa | 5.2V | 00:00:00 | 00:00:00 | 00:00:00 | |
| DB0UT-7 | 2026-09-04 10:49:07 | 48.12233 | 2.84463 | 65° | 22km/h | 20575m | 6.1m/s | -55.4°C | 0% | 0hPa | 5.2V | 00:00:00 | 00:00:00 | 00:00:00 | |
| DB0UT-7 | 2026-09-04 10:48:12 | 48.12116 | 2.84167 | 292° | 15km/h | 20194m | 5.5m/s | -54.3°C | 0% | 0hPa | 5.2V | 00:00:00 | 00:00:00 | 00:00:00 | |
| DB0UT-7 | 2026-09-04 10:47:40 | 48.12063 | 2.84097 | 44° | 22km/h | 19952m | 7.1m/s | -55.5°C | 0% | 0hPa | 5.2V | 00:00:00 | 00:00:00 | 00:00:00 | |
| DB0UT-7 | 2026-09-04 10:47:10 | 48.12027 | 2.83880 | 90° | 20km/h | 19733m | 7.5m/s | -55.5°C | 0% | 0hPa | 5.2V | 00:00:00 | 00:00:00 | 00:00:00 | |
| DB0UT-7 | 2026-09-04 10:46:40 | 48.12042 | 2.83768 | 187° | 33km/h | 19504m | 5.6m/s | -55.2°C | 0% | 0hPa | 5.2V | 00:00:00 | 00:00:00 | 00:00:00 | |
| DB0UT-7 | 2026-09-04 10:46:08 | 48.12127 | 2.83432 | 58° | 24km/h | 19288m | 8.7m/s | -55.4°C | 0% | 0hPa | 5.2V | 00:00:00 | 00:00:00 | 00:00:00 | |
| DB0UT-7 | 2026-09-04 10:45:38 | 48.12171 | 2.83219 | 159° | 37km/h | 19080m | 4.5m/s | -55.1°C | 0% | 0hPa | 5.2V | 00:00:00 | 00:00:00 | 00:00:00 | |
| DB0UT-7 | 2026-09-04 10:45:08 | 48.12311 | 2.82901 | 95° | 46km/h | 18868m | 8.2m/s | -56.1°C | 0% | 0hPa | 5.2V | 00:00:00 | 00:00:00 | 00:00:00 | |
| DB0UT-7 | 2026-09-04 10:44:38 | 48.12447 | 2.82434 | 110° | 44km/h | 18646m | 5.0m/s | -55.8°C | 0% | 0hPa | 5.2V | 00:00:00 | 00:00:00 | 00:00:00 | |
| DB0UT-7 | 2026-09-04 10:44:08 | 48.12494 | 2.81965 | 93° | 35km/h | 18457m | 5.3m/s | -56.1°C | 0% | 0hPa | 5.2V | 00:00:00 | 00:00:00 | 00:00:00 | |
| DB0UT-7 | 2026-09-04 10:43:37 | 48.12544 | 2.81601 | 84° | 47km/h | 18256m | 5.3m/s | -56.5°C | 0% | 0hPa | 5.2V | 00:00:00 | 00:00:00 | 00:00:00 | |
| DB0UT-7 | 2026-09-04 10:42:42 | 48.12686 | 2.80686 | 116° | 40km/h | 17870m | 6.5m/s | -57.0°C | 0% | 0hPa | 5.2V | 00:00:00 | 00:00:00 | 00:00:00 | |
| DB0UT-7 | 2026-09-04 10:42:12 | 48.12590 | 2.80278 | 69° | 33km/h | 17639m | 8.1m/s | -57.3°C | 0% | 0hPa | 5.2V | 00:00:00 | 00:00:00 | 00:00:00 | |
| DB0UT-7 | 2026-09-04 10:41:31 | 48.12489 | 2.79797 | 80° | 55km/h | 17401m | 4.8m/s | -57.6°C | 0% | 0hPa | 5.2V | 00:00:00 | 00:00:00 | 00:00:00 | |
| DB0UT-7 | 2026-09-04 10:40:59 | 48.12546 | 2.79170 | 90° | 44km/h | 17218m | 4.8m/s | -58.1°C | 0% | 0hPa | 5.2V | 00:00:00 | 00:00:00 | 00:00:00 | |
| DB0UT-7 | 2026-09-04 10:40:29 | 48.12613 | 2.78699 | 79° | 57km/h | 17038m | 6.4m/s | -58.6°C | 0% | 0hPa | 5.2V | 00:00:00 | 00:00:00 | 00:00:00 | |
| DB0UT-7 | 2026-09-04 10:39:15 | 48.12502 | 2.77382 | 92° | 51km/h | 16530m | 8.4m/s | -59.3°C | 0% | 0hPa | 5.2V | 00:00:00 | 00:00:00 | 00:00:00 | |
| DB0UT-7 | 2026-09-04 10:38:45 | 48.12514 | 2.76804 | 105° | 49km/h | 16306m | 6.0m/s | -59.3°C | 0% | 0hPa | 5.2V | 00:00:00 | 00:00:00 | 00:00:00 | |
| DB0UT-7 | 2026-09-04 10:38:13 | 48.12554 | 2.76212 | 88° | 62km/h | 16075m | 7.4m/s | -58.3°C | 0% | 0hPa | 5.2V | 00:00:00 | 00:00:00 | 00:00:00 | |
| DB0UT-7 | 2026-09-04 10:37:43 | 48.12473 | 2.75503 | 81° | 58km/h | 15900m | 5.7m/s | -58.4°C | 0% | 0hPa | 5.2V | 00:00:00 | 00:00:00 | 00:00:00 | |
| DB0UT-7 | 2026-09-04 10:37:13 | 48.12401 | 2.74856 | 86° | 58km/h | 15726m | 6.9m/s | -58.5°C | 0% | 0hPa | 5.2V | 00:00:00 | 00:00:00 | 00:00:00 | |
| DB0UT-7 | 2026-09-04 10:36:43 | 48.12403 | 2.74178 | 85° | 55km/h | 15560m | 6.4m/s | -59.5°C | 0% | 0hPa | 5.2V | 00:00:00 | 00:00:00 | 00:00:00 | |
| DB0UT-7 | 2026-09-04 10:35:55 | 48.12336 | 2.73108 | 83° | 73km/h | 15300m | 4.2m/s | -59.3°C | 0% | 0hPa | 5.2V | 00:00:00 | 00:00:00 | 00:00:00 | |
| DB0UT-7 | 2026-09-04 10:35:24 | 48.12375 | 2.72277 | 102° | 73km/h | 15099m | 5.9m/s | -58.8°C | 0% | 0hPa | 5.2V | 00:00:00 | 00:00:00 | 00:00:00 | |
| DB0UT-7 | 2026-09-04 10:34:52 | 48.12370 | 2.71380 | 85° | 78km/h | 14914m | 5.2m/s | -58.7°C | 0% | 0hPa | 5.2V | 00:00:00 | 00:00:00 | 00:00:00 | |
| DB0UT-7 | 2026-09-04 10:34:10 | 48.12271 | 2.70181 | 95° | 84km/h | 14649m | 6.6m/s | -61.5°C | 0% | 0hPa | 5.2V | 00:00:00 | 00:00:00 | 00:00:00 | |
| DB0UT-7 | 2026-09-04 10:33:39 | 48.12261 | 2.69199 | 87° | 95km/h | 14475m | 5.1m/s | -62.6°C | 0% | 0hPa | 5.2V | 00:00:00 | 00:00:00 | 00:00:00 | |
| DB0UT-7 | 2026-09-04 10:33:08 | 48.12091 | 2.68108 | 81° | 78km/h | 14237m | 8.4m/s | -63.3°C | 0% | 0hPa | 5.2V | 00:00:00 | 00:00:00 | 00:00:00 | |
| DB0UT-7 | 2026-09-04 10:32:38 | 48.11927 | 2.67262 | 62° | 82km/h | 14011m | 5.3m/s | -64.6°C | 0% | 0hPa | 5.2V | 00:00:00 | 00:00:00 | 00:00:00 | |
| DB0UT-7 | 2026-09-04 10:32:08 | 48.11751 | 2.66369 | 67° | 80km/h | 13840m | 5.8m/s | -64.0°C | 0% | 0hPa | 5.2V | 00:00:00 | 00:00:00 | 00:00:00 | |
| DB0UT-7 | 2026-09-04 10:31:08 | 48.11315 | 2.64548 | 56° | 91km/h | 13510m | 4.9m/s | -63.1°C | 0% | 0hPa | 5.2V | 00:00:00 | 00:00:00 | 00:00:00 | |
| DB0UT-7 | 2026-09-04 10:30:36 | 48.10968 | 2.63601 | 72° | 80km/h | 13312m | 5.3m/s | -62.6°C | 0% | 0hPa | 5.2V | 00:00:00 | 00:00:00 | 00:00:00 | |
| DB0UT-7 | 2026-09-04 10:30:06 | 48.10736 | 2.62768 | 64° | 84km/h | 13143m | 6.9m/s | -61.4°C | 0% | 0hPa | 5.3V | 00:00:00 | 00:00:00 | 00:00:00 | |
| DB0UT-7 | 2026-09-04 10:29:36 | 48.10492 | 2.61889 | 65° | 97km/h | 12976m | 6.9m/s | -60.1°C | 0% | 0hPa | 5.3V | 00:00:00 | 00:00:00 | 00:00:00 | |
| DB0UT-7 | 2026-09-04 10:29:06 | 48.10154 | 2.60927 | 67° | 91km/h | 12757m | 7.0m/s | -58.4°C | 0% | 0hPa | 5.3V | 00:00:00 | 00:00:00 | 00:00:00 | |
| DB0UT-7 | 2026-09-04 10:28:36 | 48.09837 | 2.60010 | 67° | 91km/h | 12570m | 7.8m/s | -56.9°C | 0% | 0hPa | 5.3V | 00:00:00 | 00:00:00 | 00:00:00 | |
| DB0UT-7 | 2026-09-04 10:28:06 | 48.09559 | 2.59060 | 57° | 99km/h | 12387m | 6.4m/s | -55.7°C | 0% | 0hPa | 5.3V | 00:00:00 | 00:00:00 | 00:00:00 | |
| DB0UT-7 | 2026-09-04 10:27:34 | 48.09262 | 2.57960 | 62° | 99km/h | 12176m | 5.7m/s | -54.2°C | 0% | 0hPa | 5.3V | 00:00:00 | 00:00:00 | 00:00:00 | |
| DB0UT-7 | 2026-09-04 10:27:04 | 48.09034 | 2.56894 | 80° | 97km/h | 12008m | 5.4m/s | -53.0°C | 0% | 0hPa | 5.3V | 00:00:00 | 00:00:00 | 00:00:00 | |
| DB0UT-7 | 2026-09-04 10:26:34 | 48.08763 | 2.55902 | 76° | 99km/h | 11796m | 6.0m/s | -51.4°C | 0% | 0hPa | 5.3V | 00:00:00 | 00:00:00 | 00:00:00 | |
| DB0UT-7 | 2026-09-04 10:26:00 | 48.08473 | 2.54727 | 68° | 86km/h | 11581m | 4.1m/s | -49.4°C | 0% | 0hPa | 5.3V | 00:00:00 | 00:00:00 | 00:00:00 | |
| DB0UT-7 | 2026-09-04 10:25:30 | 48.08256 | 2.53814 | 83° | 88km/h | 11422m | 7.3m/s | -48.1°C | 0% | 0hPa | 5.3V | 00:00:00 | 00:00:00 | 00:00:00 | |
| DB0UT-7 | 2026-09-04 10:25:00 | 48.08054 | 2.52894 | 89° | 86km/h | 11248m | 4.8m/s | -47.1°C | 0% | 0hPa | 5.3V | 00:00:00 | 00:00:00 | 00:00:00 | |
| DB0UT-7 | 2026-09-04 10:24:30 | 48.07871 | 2.51951 | 74° | 88km/h | 11043m | 7.7m/s | -45.3°C | 0% | 0hPa | 5.3V | 00:00:00 | 00:00:00 | 00:00:00 | |
| DB0UT-7 | 2026-09-04 10:24:00 | 48.07674 | 2.50997 | 66° | 82km/h | 10842m | 5.1m/s | -43.6°C | 0% | 0hPa | 5.3V | 00:00:00 | 00:00:00 | 00:00:00 | |
| DB0UT-7 | 2026-09-04 10:23:30 | 48.07433 | 2.50143 | 64° | 80km/h | 10663m | 6.6m/s | -42.4°C | 0% | 0hPa | 5.3V | 00:00:00 | 00:00:00 | 00:00:00 | |
| DB0UT-7 | 2026-09-04 10:23:00 | 48.07243 | 2.49293 | 78° | 77km/h | 10469m | 5.7m/s | -41.0°C | 0% | 0hPa | 5.3V | 00:00:00 | 00:00:00 | 00:00:00 | |
| DB0UT-7 | 2026-09-04 10:22:30 | 48.07049 | 2.48467 | 62° | 80km/h | 10287m | 5.8m/s | -39.7°C | 0% | 0hPa | 5.3V | 00:00:00 | 00:00:00 | 00:00:00 | |
| DB0UT-7 | 2026-09-04 10:22:00 | 48.06842 | 2.47616 | 80° | 69km/h | 10123m | 5.5m/s | -38.3°C | 0% | 0hPa | 5.3V | 00:00:00 | 00:00:00 | 00:00:00 | |
| DB0UT-7 | 2026-09-04 10:21:30 | 48.06669 | 2.46874 | 79° | 88km/h | 9971m | 4.6m/s | -37.1°C | 0% | 0hPa | 5.3V | 00:00:00 | 00:00:00 | 00:00:00 | |
| DB0UT-7 | 2026-09-04 10:21:00 | 48.06433 | 2.45943 | 67° | 86km/h | 9778m | 6.2m/s | -35.9°C | 0% | 0hPa | 5.3V | 00:00:00 | 00:00:00 | 00:00:00 | |
| DB0UT-7 | 2026-09-04 10:20:30 | 48.06242 | 2.45000 | 71° | 95km/h | 9593m | 7.3m/s | -34.3°C | 0% | 0hPa | 5.3V | 00:00:00 | 00:00:00 | 00:00:00 | |
| DB0UT-7 | 2026-09-04 10:20:00 | 48.05991 | 2.43984 | 73° | 84km/h | 9399m | 6.0m/s | -32.8°C | 0% | 0hPa | 5.3V | 00:00:00 | 00:00:00 | 00:00:00 | |
| DB0UT-7 | 2026-09-04 10:19:30 | 48.05803 | 2.43089 | 68° | 84km/h | 9216m | 5.3m/s | -31.7°C | 0% | 0hPa | 5.3V | 00:00:00 | 00:00:00 | 00:00:00 | |
| DB0UT-7 | 2026-09-04 10:19:00 | 48.05575 | 2.42206 | 63° | 88km/h | 9044m | 4.2m/s | -30.8°C | 0% | 0hPa | 5.3V | 00:00:00 | 00:00:00 | 00:00:00 | |
| DB0UT-7 | 2026-09-04 10:18:30 | 48.05327 | 2.41299 | 78° | 93km/h | 8855m | 7.0m/s | -29.6°C | 0% | 0hPa | 5.3V | 00:00:00 | 00:00:00 | 00:00:00 | |
| DB0UT-7 | 2026-09-04 10:18:00 | 48.05095 | 2.40320 | 68° | 89km/h | 8664m | 6.1m/s | -28.1°C | 0% | 0hPa | 5.3V | 00:00:00 | 00:00:00 | 00:00:00 | |
| DB0UT-7 | 2026-09-04 10:17:30 | 48.04857 | 2.39324 | 84° | 80km/h | 8470m | 5.0m/s | -26.7°C | 0% | 0hPa | 5.3V | 00:00:00 | 00:00:00 | 00:00:00 | |
| DB0UT-7 | 2026-09-04 10:17:00 | 48.04680 | 2.38458 | 69° | 91km/h | 8280m | 6.5m/s | -25.3°C | 0% | 0hPa | 5.3V | 00:00:00 | 00:00:00 | 00:00:00 | |
| DB0UT-7 | 2026-09-04 10:16:30 | 48.04476 | 2.37475 | 80° | 84km/h | 8087m | 6.3m/s | -23.8°C | 0% | 0hPa | 5.3V | 00:00:00 | 00:00:00 | 00:00:00 | |
| DB0UT-7 | 2026-09-04 10:16:00 | 48.04276 | 2.36568 | 69° | 88km/h | 7889m | 6.0m/s | -22.1°C | 0% | 0hPa | 5.3V | 00:00:00 | 00:00:00 | 00:00:00 | |
| DB0UT-7 | 2026-09-04 10:15:30 | 48.04137 | 2.35610 | 75° | 88km/h | 7712m | 7.7m/s | -20.7°C | 0% | 0hPa | 5.3V | 00:00:00 | 00:00:00 | 00:00:00 | |
| DB0UT-7 | 2026-09-04 10:15:00 | 48.03934 | 2.34674 | 70° | 91km/h | 7526m | 7.1m/s | -19.2°C | 0% | 0hPa | 5.3V | 00:00:00 | 00:00:00 | 00:00:00 | |
| DB0UT-7 | 2026-09-04 10:14:13 | 48.03679 | 2.33201 | 82° | 77km/h | 7231m | 5.8m/s | -17.5°C | 0% | 0hPa | 5.3V | 00:00:00 | 00:00:00 | 00:00:00 | |
| DB0UT-7 | 2026-09-04 10:13:11 | 48.03251 | 2.31490 | 77° | 73km/h | 6871m | 4.4m/s | -15.1°C | 0% | 0hPa | 5.3V | 00:00:00 | 00:00:00 | 00:00:00 |